Agua Dulce, Texas
Current Conditions -  °F | °C
As of 11:53 PM on Sunday 21 Dec 2014 (Local Time) from KALI Reporting Station
Overcast Overcast  
Wind Chill: 60°   Ceiling: 600
Heat Index: 60°   Visibility: 8mi
Dew Point: 57°   Wind: 6mph
Humidity: 90%   Direction: 180°S
Pressure: 29.85"   Gusts: NA
Location:  27.78°N, 97.91°W
Report Text: KALI 220553Z AUTO 18005KT 8SM OVC006 16/14 A2985 RMK AO2 SLP105 T01560139 10161 20156 401610117 58021
Loading
Personal Weather Stations






























Interactive Weather Map New forecast layout! Learn more

10-Day Weather Forecast

Advertisements
Track Severe Weather on mobile